sensor_id;sensor_type;location;lat;lon;timestamp;temperature;humidity
75430;DHT22;64127;51.488;5.462;2023-04-25T00:02:18;8.90;99.90
75430;DHT22;64127;51.488;5.462;2023-04-25T00:04:51;8.90;99.90
75430;DHT22;64127;51.488;5.462;2023-04-25T00:07:25;8.90;99.90
75430;DHT22;64127;51.488;5.462;2023-04-25T00:09:57;8.90;99.90
75430;DHT22;64127;51.488;5.462;2023-04-25T00:12:29;8.90;99.90
75430;DHT22;64127;51.488;5.462;2023-04-25T00:15:01;9.00;99.90
75430;DHT22;64127;51.488;5.462;2023-04-25T00:17:34;9.00;99.90
75430;DHT22;64127;51.488;5.462;2023-04-25T00:20:07;8.90;99.90
75430;DHT22;64127;51.488;5.462;2023-04-25T00:22:41;8.90;99.90
75430;DHT22;64127;51.488;5.462;2023-04-25T00:25:13;8.90;99.90
75430;DHT22;64127;51.488;5.462;2023-04-25T00:27:45;8.90;99.90
75430;DHT22;64127;51.488;5.462;2023-04-25T00:30:17;8.90;99.90
75430;DHT22;64127;51.488;5.462;2023-04-25T00:32:49;8.90;99.90
75430;DHT22;64127;51.488;5.462;2023-04-25T00:35:21;8.80;99.90
75430;DHT22;64127;51.488;5.462;2023-04-25T00:37:54;8.80;99.90
75430;DHT22;64127;51.488;5.462;2023-04-25T00:40:27;8.80;99.90
75430;DHT22;64127;51.488;5.462;2023-04-25T00:42:59;8.80;99.90
75430;DHT22;64127;51.488;5.462;2023-04-25T00:45:31;8.80;99.90
75430;DHT22;64127;51.488;5.462;2023-04-25T00:48:08;8.80;99.90
75430;DHT22;64127;51.488;5.462;2023-04-25T00:50:41;8.80;99.90
75430;DHT22;64127;51.488;5.462;2023-04-25T00:53:13;8.80;99.90
75430;DHT22;64127;51.488;5.462;2023-04-25T00:55:46;8.80;99.90
75430;DHT22;64127;51.488;5.462;2023-04-25T00:58:20;8.80;99.90
75430;DHT22;64127;51.488;5.462;2023-04-25T01:00:53;8.80;99.90
75430;DHT22;64127;51.488;5.462;2023-04-25T01:03:27;8.80;99.90
75430;DHT22;64127;51.488;5.462;2023-04-25T01:06:01;8.70;99.90
75430;DHT22;64127;51.488;5.462;2023-04-25T01:08:34;8.70;99.90
75430;DHT22;64127;51.488;5.462;2023-04-25T01:11:07;8.70;99.90
75430;DHT22;64127;51.488;5.462;2023-04-25T01:13:39;8.70;99.90
75430;DHT22;64127;51.488;5.462;2023-04-25T01:16:11;8.70;99.90
75430;DHT22;64127;51.488;5.462;2023-04-25T01:18:43;8.60;99.90
75430;DHT22;64127;51.488;5.462;2023-04-25T01:21:16;8.60;99.90
75430;DHT22;64127;51.488;5.462;2023-04-25T01:23:49;8.60;99.90
75430;DHT22;64127;51.488;5.462;2023-04-25T01:26:22;8.60;99.90
75430;DHT22;64127;51.488;5.462;2023-04-25T01:28:54;8.50;99.90
75430;DHT22;64127;51.488;5.462;2023-04-25T01:31:28;8.50;99.90
75430;DHT22;64127;51.488;5.462;2023-04-25T01:34:00;8.50;99.90
75430;DHT22;64127;51.488;5.462;2023-04-25T01:36:33;8.50;99.90
75430;DHT22;64127;51.488;5.462;2023-04-25T01:39:06;8.50;99.90
75430;DHT22;64127;51.488;5.462;2023-04-25T01:41:39;8.50;99.90
75430;DHT22;64127;51.488;5.462;2023-04-25T01:44:11;8.50;99.90
75430;DHT22;64127;51.488;5.462;2023-04-25T01:46:43;8.50;99.90
75430;DHT22;64127;51.488;5.462;2023-04-25T01:49:15;8.50;99.90
75430;DHT22;64127;51.488;5.462;2023-04-25T01:51:48;8.50;99.90
75430;DHT22;64127;51.488;5.462;2023-04-25T01:54:20;8.50;99.90
75430;DHT22;64127;51.488;5.462;2023-04-25T01:56:52;8.50;99.90
75430;DHT22;64127;51.488;5.462;2023-04-25T01:59:24;8.50;99.90
75430;DHT22;64127;51.488;5.462;2023-04-25T02:01:57;8.50;99.90
75430;DHT22;64127;51.488;5.462;2023-04-25T02:04:29;8.50;99.90
75430;DHT22;64127;51.488;5.462;2023-04-25T02:07:02;8.40;99.90
75430;DHT22;64127;51.488;5.462;2023-04-25T02:09:35;8.40;99.90
75430;DHT22;64127;51.488;5.462;2023-04-25T02:12:09;8.40;99.90
75430;DHT22;64127;51.488;5.462;2023-04-25T02:14:41;8.40;99.90
75430;DHT22;64127;51.488;5.462;2023-04-25T02:17:13;8.40;99.90
75430;DHT22;64127;51.488;5.462;2023-04-25T02:19:45;8.50;99.90
75430;DHT22;64127;51.488;5.462;2023-04-25T02:22:17;8.50;99.90
75430;DHT22;64127;51.488;5.462;2023-04-25T02:24:49;8.40;99.90
75430;DHT22;64127;51.488;5.462;2023-04-25T02:27:22;8.40;99.90
75430;DHT22;64127;51.488;5.462;2023-04-25T02:29:53;8.40;99.90
75430;DHT22;64127;51.488;5.462;2023-04-25T02:32:26;8.40;99.90
75430;DHT22;64127;51.488;5.462;2023-04-25T02:34:58;8.40;99.90
75430;DHT22;64127;51.488;5.462;2023-04-25T02:37:37;8.40;99.90
75430;DHT22;64127;51.488;5.462;2023-04-25T02:40:09;8.40;99.90
75430;DHT22;64127;51.488;5.462;2023-04-25T02:42:42;8.30;99.90
75430;DHT22;64127;51.488;5.462;2023-04-25T02:45:14;8.30;99.90
75430;DHT22;64127;51.488;5.462;2023-04-25T02:47:46;8.20;99.90
75430;DHT22;64127;51.488;5.462;2023-04-25T02:50:18;8.20;99.90
75430;DHT22;64127;51.488;5.462;2023-04-25T02:52:50;8.20;99.90
75430;DHT22;64127;51.488;5.462;2023-04-25T02:55:22;8.20;99.90
75430;DHT22;64127;51.488;5.462;2023-04-25T02:57:57;8.20;99.90
75430;DHT22;64127;51.488;5.462;2023-04-25T03:00:29;8.10;99.90
75430;DHT22;64127;51.488;5.462;2023-04-25T03:03:01;8.10;99.90
75430;DHT22;64127;51.488;5.462;2023-04-25T03:05:34;8.10;99.90
75430;DHT22;64127;51.488;5.462;2023-04-25T03:08:06;8.10;99.90
75430;DHT22;64127;51.488;5.462;2023-04-25T03:10:38;8.10;99.90
75430;DHT22;64127;51.488;5.462;2023-04-25T03:13:10;8.10;99.90
75430;DHT22;64127;51.488;5.462;2023-04-25T03:15:43;8.10;99.90
75430;DHT22;64127;51.488;5.462;2023-04-25T03:18:14;8.10;99.90
75430;DHT22;64127;51.488;5.462;2023-04-25T03:20:46;8.10;99.90
75430;DHT22;64127;51.488;5.462;2023-04-25T03:23:19;8.10;99.90
75430;DHT22;64127;51.488;5.462;2023-04-25T03:25:51;8.10;99.90
75430;DHT22;64127;51.488;5.462;2023-04-25T03:28:23;8.10;99.90
75430;DHT22;64127;51.488;5.462;2023-04-25T03:30:55;8.20;99.90
75430;DHT22;64127;51.488;5.462;2023-04-25T03:33:27;8.10;99.90
75430;DHT22;64127;51.488;5.462;2023-04-25T03:35:59;8.10;99.90
75430;DHT22;64127;51.488;5.462;2023-04-25T03:38:31;8.10;99.90
75430;DHT22;64127;51.488;5.462;2023-04-25T03:41:03;8.20;99.90
75430;DHT22;64127;51.488;5.462;2023-04-25T03:43:35;8.10;99.90
75430;DHT22;64127;51.488;5.462;2023-04-25T03:46:07;8.10;99.90
75430;DHT22;64127;51.488;5.462;2023-04-25T03:48:39;8.10;99.90
75430;DHT22;64127;51.488;5.462;2023-04-25T03:51:11;8.20;99.90
75430;DHT22;64127;51.488;5.462;2023-04-25T03:53:43;8.20;99.90
75430;DHT22;64127;51.488;5.462;2023-04-25T03:56:15;8.20;99.90
75430;DHT22;64127;51.488;5.462;2023-04-25T03:58:47;8.20;99.90
75430;DHT22;64127;51.488;5.462;2023-04-25T04:01:19;8.20;99.90
75430;DHT22;64127;51.488;5.462;2023-04-25T04:03:51;8.20;99.90
75430;DHT22;64127;51.488;5.462;2023-04-25T04:06:23;8.20;99.90
75430;DHT22;64127;51.488;5.462;2023-04-25T04:08:55;8.20;99.90
75430;DHT22;64127;51.488;5.462;2023-04-25T04:11:28;8.20;99.90
75430;DHT22;64127;51.488;5.462;2023-04-25T04:14:00;8.20;99.90
75430;DHT22;64127;51.488;5.462;2023-04-25T04:16:32;8.20;99.90
75430;DHT22;64127;51.488;5.462;2023-04-25T04:19:05;8.20;99.90
75430;DHT22;64127;51.488;5.462;2023-04-25T04:21:37;8.20;99.90
75430;DHT22;64127;51.488;5.462;2023-04-25T04:24:09;8.10;99.90
75430;DHT22;64127;51.488;5.462;2023-04-25T04:26:42;8.20;99.90
75430;DHT22;64127;51.488;5.462;2023-04-25T04:29:16;8.20;99.90
75430;DHT22;64127;51.488;5.462;2023-04-25T04:31:52;8.10;99.90
75430;DHT22;64127;51.488;5.462;2023-04-25T04:34:25;8.10;99.90
75430;DHT22;64127;51.488;5.462;2023-04-25T04:36:57;8.10;99.90
75430;DHT22;64127;51.488;5.462;2023-04-25T04:39:29;8.10;99.90
75430;DHT22;64127;51.488;5.462;2023-04-25T04:42:01;8.00;99.90
75430;DHT22;64127;51.488;5.462;2023-04-25T04:44:34;8.10;99.90
75430;DHT22;64127;51.488;5.462;2023-04-25T04:47:07;8.10;99.90
75430;DHT22;64127;51.488;5.462;2023-04-25T04:49:39;8.10;99.90
75430;DHT22;64127;51.488;5.462;2023-04-25T04:52:11;8.10;99.90
75430;DHT22;64127;51.488;5.462;2023-04-25T04:54:43;8.10;99.90
75430;DHT22;64127;51.488;5.462;2023-04-25T04:57:15;8.10;99.90
75430;DHT22;64127;51.488;5.462;2023-04-25T04:59:48;8.10;99.90
75430;DHT22;64127;51.488;5.462;2023-04-25T05:02:20;8.10;99.90
75430;DHT22;64127;51.488;5.462;2023-04-25T05:04:52;8.10;99.90
75430;DHT22;64127;51.488;5.462;2023-04-25T05:07:24;8.20;99.90
75430;DHT22;64127;51.488;5.462;2023-04-25T05:09:56;8.20;99.90
75430;DHT22;64127;51.488;5.462;2023-04-25T05:12:28;8.20;99.90
75430;DHT22;64127;51.488;5.462;2023-04-25T05:15:00;8.20;99.90
75430;DHT22;64127;51.488;5.462;2023-04-25T05:17:32;8.20;99.90
75430;DHT22;64127;51.488;5.462;2023-04-25T05:20:06;8.30;99.90
75430;DHT22;64127;51.488;5.462;2023-04-25T05:22:40;8.30;99.90
75430;DHT22;64127;51.488;5.462;2023-04-25T05:25:13;8.30;99.90
75430;DHT22;64127;51.488;5.462;2023-04-25T05:27:45;8.30;99.90
75430;DHT22;64127;51.488;5.462;2023-04-25T05:30:17;8.40;99.90
75430;DHT22;64127;51.488;5.462;2023-04-25T05:32:49;8.40;99.90
75430;DHT22;64127;51.488;5.462;2023-04-25T05:35:22;8.40;99.90
75430;DHT22;64127;51.488;5.462;2023-04-25T05:37:54;8.50;99.90
75430;DHT22;64127;51.488;5.462;2023-04-25T05:40:26;8.50;99.90
75430;DHT22;64127;51.488;5.462;2023-04-25T05:42:58;8.50;99.90
75430;DHT22;64127;51.488;5.462;2023-04-25T05:45:30;8.50;99.90
75430;DHT22;64127;51.488;5.462;2023-04-25T05:48:02;8.60;99.90
75430;DHT22;64127;51.488;5.462;2023-04-25T05:50:34;8.60;99.90
75430;DHT22;64127;51.488;5.462;2023-04-25T05:53:06;8.60;99.90
75430;DHT22;64127;51.488;5.462;2023-04-25T05:55:38;8.70;99.90
75430;DHT22;64127;51.488;5.462;2023-04-25T05:58:11;8.70;99.90
75430;DHT22;64127;51.488;5.462;2023-04-25T06:00:42;8.80;99.90
75430;DHT22;64127;51.488;5.462;2023-04-25T06:03:14;8.90;99.90
75430;DHT22;64127;51.488;5.462;2023-04-25T06:05:51;8.90;99.90
75430;DHT22;64127;51.488;5.462;2023-04-25T06:08:23;8.90;99.90
75430;DHT22;64127;51.488;5.462;2023-04-25T06:10:55;9.00;99.90
75430;DHT22;64127;51.488;5.462;2023-04-25T06:13:27;8.90;99.90
75430;DHT22;64127;51.488;5.462;2023-04-25T06:15:59;8.90;99.90
75430;DHT22;64127;51.488;5.462;2023-04-25T06:18:31;9.00;99.90
75430;DHT22;64127;51.488;5.462;2023-04-25T06:21:03;8.90;99.90
75430;DHT22;64127;51.488;5.462;2023-04-25T06:23:35;9.00;99.90
75430;DHT22;64127;51.488;5.462;2023-04-25T06:26:07;9.00;99.90
75430;DHT22;64127;51.488;5.462;2023-04-25T06:28:39;9.00;99.90
75430;DHT22;64127;51.488;5.462;2023-04-25T06:31:11;9.00;99.90
75430;DHT22;64127;51.488;5.462;2023-04-25T06:33:43;9.00;99.90
75430;DHT22;64127;51.488;5.462;2023-04-25T06:36:16;9.00;99.90
75430;DHT22;64127;51.488;5.462;2023-04-25T06:38:48;9.00;99.90
75430;DHT22;64127;51.488;5.462;2023-04-25T06:41:20;9.20;99.90
75430;DHT22;64127;51.488;5.462;2023-04-25T06:43:52;9.50;99.90
75430;DHT22;64127;51.488;5.462;2023-04-25T06:46:24;9.70;99.90
75430;DHT22;64127;51.488;5.462;2023-04-25T06:48:56;9.90;99.90
75430;DHT22;64127;51.488;5.462;2023-04-25T06:51:28;10.10;99.90
75430;DHT22;64127;51.488;5.462;2023-04-25T06:54:01;10.30;99.90
75430;DHT22;64127;51.488;5.462;2023-04-25T06:56:35;10.50;99.90
75430;DHT22;64127;51.488;5.462;2023-04-25T06:59:07;10.70;99.90
75430;DHT22;64127;51.488;5.462;2023-04-25T07:01:39;10.90;99.90
75430;DHT22;64127;51.488;5.462;2023-04-25T07:04:12;11.00;99.90
75430;DHT22;64127;51.488;5.462;2023-04-25T07:06:44;11.10;99.90
75430;DHT22;64127;51.488;5.462;2023-04-25T07:09:18;11.20;99.90
75430;DHT22;64127;51.488;5.462;2023-04-25T07:11:50;11.20;99.90
75430;DHT22;64127;51.488;5.462;2023-04-25T07:14:22;11.20;99.90
75430;DHT22;64127;51.488;5.462;2023-04-25T07:16:54;11.30;99.90
75430;DHT22;64127;51.488;5.462;2023-04-25T07:19:28;11.40;99.90
75430;DHT22;64127;51.488;5.462;2023-04-25T07:22:01;11.50;99.90
75430;DHT22;64127;51.488;5.462;2023-04-25T07:24:33;11.50;99.90
75430;DHT22;64127;51.488;5.462;2023-04-25T07:27:05;11.70;99.90
75430;DHT22;64127;51.488;5.462;2023-04-25T07:29:37;11.80;99.90
75430;DHT22;64127;51.488;5.462;2023-04-25T07:32:09;11.90;99.90
75430;DHT22;64127;51.488;5.462;2023-04-25T07:34:44;12.00;99.90
75430;DHT22;64127;51.488;5.462;2023-04-25T07:37:16;12.20;99.90
75430;DHT22;64127;51.488;5.462;2023-04-25T07:39:50;12.40;99.90
75430;DHT22;64127;51.488;5.462;2023-04-25T07:42:22;12.60;99.90
75430;DHT22;64127;51.488;5.462;2023-04-25T07:44:54;12.70;99.90
75430;DHT22;64127;51.488;5.462;2023-04-25T07:47:26;12.80;99.90
75430;DHT22;64127;51.488;5.462;2023-04-25T07:49:58;12.80;99.70
75430;DHT22;64127;51.488;5.462;2023-04-25T07:52:30;12.90;99.50
75430;DHT22;64127;51.488;5.462;2023-04-25T07:55:03;12.80;99.10
75430;DHT22;64127;51.488;5.462;2023-04-25T07:57:35;12.70;98.90
75430;DHT22;64127;51.488;5.462;2023-04-25T08:00:07;12.50;98.80
75430;DHT22;64127;51.488;5.462;2023-04-25T08:02:43;12.40;98.80
75430;DHT22;64127;51.488;5.462;2023-04-25T08:05:15;12.30;98.60
75430;DHT22;64127;51.488;5.462;2023-04-25T08:07:51;12.20;98.30
75430;DHT22;64127;51.488;5.462;2023-04-25T08:10:23;12.10;98.30
75430;DHT22;64127;51.488;5.462;2023-04-25T08:12:55;12.30;98.10
75430;DHT22;64127;51.488;5.462;2023-04-25T08:15:27;12.40;97.40
75430;DHT22;64127;51.488;5.462;2023-04-25T08:17:59;12.30;96.70
75430;DHT22;64127;51.488;5.462;2023-04-25T08:20:31;12.30;96.70
75430;DHT22;64127;51.488;5.462;2023-04-25T08:23:03;12.20;96.90
75430;DHT22;64127;51.488;5.462;2023-04-25T08:25:35;12.10;96.40
75430;DHT22;64127;51.488;5.462;2023-04-25T08:28:07;11.90;96.60
75430;DHT22;64127;51.488;5.462;2023-04-25T08:30:39;11.80;96.50
75430;DHT22;64127;51.488;5.462;2023-04-25T08:33:11;11.70;96.50
75430;DHT22;64127;51.488;5.462;2023-04-25T08:35:44;11.60;96.90
75430;DHT22;64127;51.488;5.462;2023-04-25T08:38:17;11.60;97.10
75430;DHT22;64127;51.488;5.462;2023-04-25T08:40:50;11.70;97.20
75430;DHT22;64127;51.488;5.462;2023-04-25T08:43:23;11.90;97.20
75430;DHT22;64127;51.488;5.462;2023-04-25T08:46:00;12.10;97.30
75430;DHT22;64127;51.488;5.462;2023-04-25T08:48:33;12.20;97.20
75430;DHT22;64127;51.488;5.462;2023-04-25T08:51:07;12.20;97.00
75430;DHT22;64127;51.488;5.462;2023-04-25T08:53:49;12.30;97.10
75430;DHT22;64127;51.488;5.462;2023-04-25T08:56:28;12.30;96.60
75430;DHT22;64127;51.488;5.462;2023-04-25T08:59:02;12.30;96.70
75430;DHT22;64127;51.488;5.462;2023-04-25T09:01:34;12.20;96.30
75430;DHT22;64127;51.488;5.462;2023-04-25T09:04:09;12.20;96.00
75430;DHT22;64127;51.488;5.462;2023-04-25T09:06:43;12.30;95.90
75430;DHT22;64127;51.488;5.462;2023-04-25T09:09:15;12.50;95.80
75430;DHT22;64127;51.488;5.462;2023-04-25T09:11:48;12.60;95.60
75430;DHT22;64127;51.488;5.462;2023-04-25T09:14:22;12.60;95.40
75430;DHT22;64127;51.488;5.462;2023-04-25T09:19:34;12.80;95.40
75430;DHT22;64127;51.488;5.462;2023-04-25T09:22:12;12.80;95.40
75430;DHT22;64127;51.488;5.462;2023-04-25T09:24:44;12.80;95.10
75430;DHT22;64127;51.488;5.462;2023-04-25T09:27:19;12.90;94.80
75430;DHT22;64127;51.488;5.462;2023-04-25T09:29:58;13.00;94.70
75430;DHT22;64127;51.488;5.462;2023-04-25T09:32:33;13.10;94.40
75430;DHT22;64127;51.488;5.462;2023-04-25T09:35:06;13.30;93.90
75430;DHT22;64127;51.488;5.462;2023-04-25T09:37:40;13.30;92.90
75430;DHT22;64127;51.488;5.462;2023-04-25T09:40:12;13.20;92.30
75430;DHT22;64127;51.488;5.462;2023-04-25T09:42:44;13.00;92.50
75430;DHT22;64127;51.488;5.462;2023-04-25T09:45:16;13.20;92.70
75430;DHT22;64127;51.488;5.462;2023-04-25T09:47:48;13.30;92.50
75430;DHT22;64127;51.488;5.462;2023-04-25T09:50:21;13.50;92.30
75430;DHT22;64127;51.488;5.462;2023-04-25T09:53:05;13.60;91.50
75430;DHT22;64127;51.488;5.462;2023-04-25T09:55:39;13.60;91.10
75430;DHT22;64127;51.488;5.462;2023-04-25T09:58:14;13.70;91.30
75430;DHT22;64127;51.488;5.462;2023-04-25T10:00:47;13.80;91.20
75430;DHT22;64127;51.488;5.462;2023-04-25T10:03:20;13.90;90.90
75430;DHT22;64127;51.488;5.462;2023-04-25T10:06:00;13.90;90.40
75430;DHT22;64127;51.488;5.462;2023-04-25T10:08:35;13.80;90.80
75430;DHT22;64127;51.488;5.462;2023-04-25T10:11:08;13.70;91.10
75430;DHT22;64127;51.488;5.462;2023-04-25T10:13:41;13.60;91.20
75430;DHT22;64127;51.488;5.462;2023-04-25T10:16:14;13.50;91.40
75430;DHT22;64127;51.488;5.462;2023-04-25T10:18:48;13.40;91.00
75430;DHT22;64127;51.488;5.462;2023-04-25T10:21:22;13.40;91.20
75430;DHT22;64127;51.488;5.462;2023-04-25T10:23:54;13.60;91.00
75430;DHT22;64127;51.488;5.462;2023-04-25T10:26:27;13.90;90.70
75430;DHT22;64127;51.488;5.462;2023-04-25T10:29:03;14.30;90.10
75430;DHT22;64127;51.488;5.462;2023-04-25T10:31:45;14.70;88.90
75430;DHT22;64127;51.488;5.462;2023-04-25T10:34:19;15.00;87.80
75430;DHT22;64127;51.488;5.462;2023-04-25T10:36:56;15.30;85.70
75430;DHT22;64127;51.488;5.462;2023-04-25T10:39:28;15.40;83.40
75430;DHT22;64127;51.488;5.462;2023-04-25T10:42:02;15.40;81.50
75430;DHT22;64127;51.488;5.462;2023-04-25T10:44:37;15.40;80.50
75430;DHT22;64127;51.488;5.462;2023-04-25T10:47:12;15.30;79.80
75430;DHT22;64127;51.488;5.462;2023-04-25T10:49:44;15.10;79.10
75430;DHT22;64127;51.488;5.462;2023-04-25T10:52:26;14.90;78.20
75430;DHT22;64127;51.488;5.462;2023-04-25T10:55:03;14.70;78.50
75430;DHT22;64127;51.488;5.462;2023-04-25T10:57:37;14.60;78.80
75430;DHT22;64127;51.488;5.462;2023-04-25T11:00:18;14.60;78.30
75430;DHT22;64127;51.488;5.462;2023-04-25T11:02:59;14.60;77.70
75430;DHT22;64127;51.488;5.462;2023-04-25T11:05:33;14.60;77.40
75430;DHT22;64127;51.488;5.462;2023-04-25T11:08:34;14.60;76.90
75430;DHT22;64127;51.488;5.462;2023-04-25T11:11:19;14.60;76.90
75430;DHT22;64127;51.488;5.462;2023-04-25T11:13:51;14.70;76.80
75430;DHT22;64127;51.488;5.462;2023-04-25T11:16:26;14.70;77.40
75430;DHT22;64127;51.488;5.462;2023-04-25T11:18:59;14.70;77.20
75430;DHT22;64127;51.488;5.462;2023-04-25T11:21:31;14.60;77.50
75430;DHT22;64127;51.488;5.462;2023-04-25T11:24:04;14.50;77.50
75430;DHT22;64127;51.488;5.462;2023-04-25T11:26:36;14.30;78.40
75430;DHT22;64127;51.488;5.462;2023-04-25T11:29:09;14.10;78.40
75430;DHT22;64127;51.488;5.462;2023-04-25T11:31:44;13.80;78.70
75430;DHT22;64127;51.488;5.462;2023-04-25T11:34:18;13.60;79.40
75430;DHT22;64127;51.488;5.462;2023-04-25T11:36:51;13.40;80.30
75430;DHT22;64127;51.488;5.462;2023-04-25T11:39:25;13.20;81.10
75430;DHT22;64127;51.488;5.462;2023-04-25T11:41:58;13.00;81.50
75430;DHT22;64127;51.488;5.462;2023-04-25T11:44:32;12.80;82.00
75430;DHT22;64127;51.488;5.462;2023-04-25T11:47:04;12.70;82.50
75430;DHT22;64127;51.488;5.462;2023-04-25T11:49:36;12.60;82.50
75430;DHT22;64127;51.488;5.462;2023-04-25T11:52:08;12.50;82.50
75430;DHT22;64127;51.488;5.462;2023-04-25T11:54:41;12.50;82.20
75430;DHT22;64127;51.488;5.462;2023-04-25T11:57:13;12.50;82.60
75430;DHT22;64127;51.488;5.462;2023-04-25T11:59:46;12.70;82.40
75430;DHT22;64127;51.488;5.462;2023-04-25T12:02:25;13.10;82.00
75430;DHT22;64127;51.488;5.462;2023-04-25T12:05:01;13.50;81.20
75430;DHT22;64127;51.488;5.462;2023-04-25T12:07:52;14.00;80.70
75430;DHT22;64127;51.488;5.462;2023-04-25T12:10:25;14.40;79.60
75430;DHT22;64127;51.488;5.462;2023-04-25T12:13:00;14.60;78.60
75430;DHT22;64127;51.488;5.462;2023-04-25T12:15:33;14.60;77.50
75430;DHT22;64127;51.488;5.462;2023-04-25T12:18:06;14.60;77.40
75430;DHT22;64127;51.488;5.462;2023-04-25T12:20:38;14.80;76.50
75430;DHT22;64127;51.488;5.462;2023-04-25T12:23:10;14.80;75.40
75430;DHT22;64127;51.488;5.462;2023-04-25T12:25:44;14.70;73.80
75430;DHT22;64127;51.488;5.462;2023-04-25T12:28:18;14.30;72.90
75430;DHT22;64127;51.488;5.462;2023-04-25T12:30:59;14.10;70.80
75430;DHT22;64127;51.488;5.462;2023-04-25T12:33:35;13.90;71.00
75430;DHT22;64127;51.488;5.462;2023-04-25T12:36:08;13.90;71.20
75430;DHT22;64127;51.488;5.462;2023-04-25T12:38:42;14.10;71.30
75430;DHT22;64127;51.488;5.462;2023-04-25T12:41:14;14.30;70.90
75430;DHT22;64127;51.488;5.462;2023-04-25T12:43:47;14.30;70.50
75430;DHT22;64127;51.488;5.462;2023-04-25T12:46:19;14.40;70.60
75430;DHT22;64127;51.488;5.462;2023-04-25T12:48:51;14.50;69.90
75430;DHT22;64127;51.488;5.462;2023-04-25T12:51:23;14.50;68.70
75430;DHT22;64127;51.488;5.462;2023-04-25T12:53:56;14.50;68.00
75430;DHT22;64127;51.488;5.462;2023-04-25T12:56:29;14.60;68.00
75430;DHT22;64127;51.488;5.462;2023-04-25T12:59:02;14.70;67.80
75430;DHT22;64127;51.488;5.462;2023-04-25T13:01:35;14.70;66.40
75430;DHT22;64127;51.488;5.462;2023-04-25T13:04:07;14.60;66.50
75430;DHT22;64127;51.488;5.462;2023-04-25T13:06:40;14.60;67.30
75430;DHT22;64127;51.488;5.462;2023-04-25T13:09:12;14.70;67.00
75430;DHT22;64127;51.488;5.462;2023-04-25T13:11:44;14.80;66.50
75430;DHT22;64127;51.488;5.462;2023-04-25T13:14:17;14.80;66.70
75430;DHT22;64127;51.488;5.462;2023-04-25T13:16:49;14.80;68.20
75430;DHT22;64127;51.488;5.462;2023-04-25T13:19:21;14.70;69.40
75430;DHT22;64127;51.488;5.462;2023-04-25T13:21:53;14.50;70.10
75430;DHT22;64127;51.488;5.462;2023-04-25T13:24:26;14.30;71.10
75430;DHT22;64127;51.488;5.462;2023-04-25T13:26:58;14.30;71.80
75430;DHT22;64127;51.488;5.462;2023-04-25T13:29:30;14.30;71.70
75430;DHT22;64127;51.488;5.462;2023-04-25T13:32:02;14.40;72.00
75430;DHT22;64127;51.488;5.462;2023-04-25T13:34:34;14.50;71.80
75430;DHT22;64127;51.488;5.462;2023-04-25T13:37:06;14.60;71.80
75430;DHT22;64127;51.488;5.462;2023-04-25T13:39:38;14.80;71.00
75430;DHT22;64127;51.488;5.462;2023-04-25T13:42:10;14.90;70.30
75430;DHT22;64127;51.488;5.462;2023-04-25T13:44:42;15.00;69.50
75430;DHT22;64127;51.488;5.462;2023-04-25T13:47:14;15.00;68.70
75430;DHT22;64127;51.488;5.462;2023-04-25T13:49:46;15.00;68.70
75430;DHT22;64127;51.488;5.462;2023-04-25T13:52:19;15.00;68.00
75430;DHT22;64127;51.488;5.462;2023-04-25T13:54:51;15.10;68.20
75430;DHT22;64127;51.488;5.462;2023-04-25T13:57:23;15.20;68.20
75430;DHT22;64127;51.488;5.462;2023-04-25T13:59:58;15.30;67.10
75430;DHT22;64127;51.488;5.462;2023-04-25T14:02:31;15.50;67.20
75430;DHT22;64127;51.488;5.462;2023-04-25T14:05:04;15.60;66.90
75430;DHT22;64127;51.488;5.462;2023-04-25T14:07:37;15.50;65.80
75430;DHT22;64127;51.488;5.462;2023-04-25T14:10:09;15.40;66.10
75430;DHT22;64127;51.488;5.462;2023-04-25T14:12:42;15.40;66.60
75430;DHT22;64127;51.488;5.462;2023-04-25T14:15:14;15.40;67.10
75430;DHT22;64127;51.488;5.462;2023-04-25T14:17:46;15.50;67.20
75430;DHT22;64127;51.488;5.462;2023-04-25T14:20:20;15.40;67.10
75430;DHT22;64127;51.488;5.462;2023-04-25T14:22:52;15.20;67.70
75430;DHT22;64127;51.488;5.462;2023-04-25T14:25:27;15.00;68.30
75430;DHT22;64127;51.488;5.462;2023-04-25T14:27:59;14.90;68.90
75430;DHT22;64127;51.488;5.462;2023-04-25T14:30:31;14.70;68.80
75430;DHT22;64127;51.488;5.462;2023-04-25T14:33:03;14.70;69.70
75430;DHT22;64127;51.488;5.462;2023-04-25T14:35:35;14.80;70.10
75430;DHT22;64127;51.488;5.462;2023-04-25T14:38:07;14.80;70.20
75430;DHT22;64127;51.488;5.462;2023-04-25T14:40:39;14.90;70.40
75430;DHT22;64127;51.488;5.462;2023-04-25T14:43:11;14.80;69.70
75430;DHT22;64127;51.488;5.462;2023-04-25T14:45:43;14.80;69.90
75430;DHT22;64127;51.488;5.462;2023-04-25T14:48:17;14.90;69.70
75430;DHT22;64127;51.488;5.462;2023-04-25T14:50:51;15.10;69.00
75430;DHT22;64127;51.488;5.462;2023-04-25T14:53:23;15.20;68.80
75430;DHT22;64127;51.488;5.462;2023-04-25T14:55:55;15.20;68.50
75430;DHT22;64127;51.488;5.462;2023-04-25T14:58:27;15.10;68.10
75430;DHT22;64127;51.488;5.462;2023-04-25T15:01:00;15.00;68.50
75430;DHT22;64127;51.488;5.462;2023-04-25T15:03:32;14.90;68.60
75430;DHT22;64127;51.488;5.462;2023-04-25T15:06:05;14.90;68.80
75430;DHT22;64127;51.488;5.462;2023-04-25T15:08:37;14.80;68.70
75430;DHT22;64127;51.488;5.462;2023-04-25T15:11:09;14.90;68.50
75430;DHT22;64127;51.488;5.462;2023-04-25T15:13:42;15.10;69.30
75430;DHT22;64127;51.488;5.462;2023-04-25T15:16:14;15.10;67.90
75430;DHT22;64127;51.488;5.462;2023-04-25T15:18:47;15.00;67.40
75430;DHT22;64127;51.488;5.462;2023-04-25T15:21:19;15.00;66.70
75430;DHT22;64127;51.488;5.462;2023-04-25T15:23:51;14.90;66.60
75430;DHT22;64127;51.488;5.462;2023-04-25T15:26:24;14.90;66.60
75430;DHT22;64127;51.488;5.462;2023-04-25T15:28:56;14.80;65.20
75430;DHT22;64127;51.488;5.462;2023-04-25T15:31:28;14.80;64.50
75430;DHT22;64127;51.488;5.462;2023-04-25T15:34:00;14.60;63.40
75430;DHT22;64127;51.488;5.462;2023-04-25T15:36:32;14.60;63.70
75430;DHT22;64127;51.488;5.462;2023-04-25T15:39:04;14.50;63.40
75430;DHT22;64127;51.488;5.462;2023-04-25T15:41:36;14.60;63.90
75430;DHT22;64127;51.488;5.462;2023-04-25T15:44:08;14.70;63.60
75430;DHT22;64127;51.488;5.462;2023-04-25T15:46:41;14.70;63.00
75430;DHT22;64127;51.488;5.462;2023-04-25T15:49:15;14.60;62.70
75430;DHT22;64127;51.488;5.462;2023-04-25T15:51:50;14.50;63.10
75430;DHT22;64127;51.488;5.462;2023-04-25T15:54:22;14.30;63.30
75430;DHT22;64127;51.488;5.462;2023-04-25T15:56:54;14.20;64.10
75430;DHT22;64127;51.488;5.462;2023-04-25T15:59:26;14.30;64.40
75430;DHT22;64127;51.488;5.462;2023-04-25T16:01:58;14.30;64.30
75430;DHT22;64127;51.488;5.462;2023-04-25T16:04:30;14.30;64.50
75430;DHT22;64127;51.488;5.462;2023-04-25T16:07:06;14.40;64.10
75430;DHT22;64127;51.488;5.462;2023-04-25T16:09:39;14.40;64.10
75430;DHT22;64127;51.488;5.462;2023-04-25T16:12:11;14.40;63.80
75430;DHT22;64127;51.488;5.462;2023-04-25T16:14:43;14.40;63.20
75430;DHT22;64127;51.488;5.462;2023-04-25T16:17:15;14.40;63.20